AFR39TE LFKJ-LFPO
Flight info
| Callsign | AFR39TE |
|---|---|
| Flight time | 1h 20m |
| Altitude | 34000 |
| Route | TORTU DCT ERTEV DCT ENOBA DCT ASTIG DCT AOSTA DCT ORSUD DCT MOLUS DCT UNKIR DCT DJL |
| Aircraft | A320/M-SDE3FGHIRWY/LB1 |
Departure
| Time | 2026-05-06 21:24 |
|---|---|
| Airport | Ajaccio Napoléon Bonaparte airport (LFKJ) |
Arrival
| Time | 2026-05-06 22:45 |
|---|---|
| Airport | Paris-Orly Airport (LFPO) |
| Time | Latitude | Longitude | Altitude | Speed | Heading |
|---|---|---|---|---|---|
| 2026-05-06 21:17 | 41.91958 | 8.79576 | 26 ft | 0 kts | 345° |
| 2026-05-06 21:20 | 41.91961 | 8.79575 | 26 ft | 1 kts | 349° |
| 2026-05-06 21:20 | 41.91963 | 8.79579 | 26 ft | 0 kts | 24° |
| 2026-05-06 21:20 | 41.91964 | 8.79595 | 26 ft | 4 kts | 88° |
| 2026-05-06 21:20 | 41.91978 | 8.79654 | 30 ft | 10 kts | 45° |
| 2026-05-06 21:21 | 41.92058 | 8.79707 | 27 ft | 15 kts | 25° |
| 2026-05-06 21:21 | 41.92158 | 8.79770 | 29 ft | 16 kts | 25° |
| 2026-05-06 21:21 | 41.92264 | 8.79836 | 27 ft | 17 kts | 25° |
| 2026-05-06 21:21 | 41.92372 | 8.79903 | 28 ft | 18 kts | 25° |
| 2026-05-06 21:22 | 41.92489 | 8.79976 | 29 ft | 19 kts | 25° |
| 2026-05-06 21:22 | 41.92608 | 8.80050 | 28 ft | 19 kts | 25° |
| 2026-05-06 21:22 | 41.92733 | 8.80128 | 27 ft | 20 kts | 25° |
| 2026-05-06 21:22 | 41.92840 | 8.80242 | 27 ft | 20 kts | 45° |
| 2026-05-06 21:23 | 41.92934 | 8.80373 | 30 ft | 19 kts | 46° |
| 2026-05-06 21:23 | 41.92962 | 8.80486 | 31 ft | 12 kts | 103° |
| 2026-05-06 21:23 | 41.92934 | 8.80577 | 30 ft | 6 kts | 162° |
| 2026-05-06 21:23 | 41.92887 | 8.80556 | 30 ft | 8 kts | 206° |
| 2026-05-06 21:24 | 41.92739 | 8.80460 | 27 ft | 59 kts | 205° |
| 2026-05-06 21:24 | 41.92127 | 8.80083 | 22 ft | 131 kts | 205° |
| 2026-05-06 21:24 | 41.91204 | 8.79505 | 440 ft | 144 kts | 205° |
| 2026-05-06 21:24 | 41.90392 | 8.78717 | 1031 ft | 149 kts | 233° |
| 2026-05-06 21:25 | 41.89872 | 8.77492 | 1608 ft | 153 kts | 242° |
| 2026-05-06 21:25 | 41.89366 | 8.76193 | 2138 ft | 164 kts | 243° |
| 2026-05-06 21:25 | 41.88806 | 8.74783 | 2605 ft | 180 kts | 242° |
| 2026-05-06 21:25 | 41.88394 | 8.73771 | 2892 ft | 192 kts | 242° |
| 2026-05-06 21:26 | 41.87710 | 8.72097 | 3248 ft | 218 kts | 242° |
| 2026-05-06 21:26 | 41.86956 | 8.70252 | 3948 ft | 230 kts | 242° |
| 2026-05-06 21:26 | 41.85965 | 8.67686 | 5242 ft | 230 kts | 251° |
| 2026-05-06 21:26 | 41.85794 | 8.66296 | 5889 ft | 230 kts | 272° |
| 2026-05-06 21:27 | 41.86353 | 8.64295 | 6778 ft | 236 kts | 308° |
| 2026-05-06 21:27 | 41.87585 | 8.62830 | 7714 ft | 237 kts | 319° |
| 2026-05-06 21:27 | 41.88930 | 8.61498 | 8564 ft | 243 kts | 321° |
| 2026-05-06 21:27 | 41.90451 | 8.60467 | 9464 ft | 252 kts | 341° |
| 2026-05-06 21:28 | 41.92260 | 8.60330 | 10110 ft | 274 kts | 5° |
| 2026-05-06 21:28 | 41.94147 | 8.61227 | 10448 ft | 303 kts | 26° |
| 2026-05-06 21:28 | 41.96084 | 8.62610 | 10805 ft | 328 kts | 26° |
| 2026-05-06 21:28 | 41.98182 | 8.64086 | 11102 ft | 352 kts | 26° |
| 2026-05-06 21:29 | 42.00431 | 8.65651 | 11328 ft | 375 kts | 25° |
| 2026-05-06 21:29 | 42.02822 | 8.67305 | 11589 ft | 396 kts | 25° |
| 2026-05-06 21:29 | 42.05297 | 8.69018 | 12171 ft | 404 kts | 26° |
| 2026-05-06 21:29 | 42.07778 | 8.70737 | 12827 ft | 409 kts | 26° |
| 2026-05-06 21:30 | 42.10328 | 8.72507 | 13534 ft | 414 kts | 26° |
| 2026-05-06 21:30 | 42.12907 | 8.74304 | 14188 ft | 419 kts | 26° |
| 2026-05-06 21:30 | 42.15506 | 8.76121 | 14835 ft | 423 kts | 26° |
| 2026-05-06 21:30 | 42.18135 | 8.77959 | 15461 ft | 428 kts | 26° |
| 2026-05-06 21:31 | 42.20788 | 8.79811 | 16088 ft | 431 kts | 26° |
| 2026-05-06 21:31 | 42.23508 | 8.81546 | 16698 ft | 433 kts | 19° |
| 2026-05-06 21:31 | 42.26391 | 8.82728 | 17295 ft | 435 kts | 10° |
| 2026-05-06 21:31 | 42.29387 | 8.83306 | 17906 ft | 435 kts | 1° |
| 2026-05-06 21:32 | 42.32419 | 8.83633 | 18459 ft | 439 kts | 1° |
| 2026-05-06 21:32 | 42.38565 | 8.84324 | 19433 ft | 447 kts | 1° |
| 2026-05-06 21:32 | 42.41677 | 8.84682 | 19875 ft | 451 kts | 1° |
| 2026-05-06 21:33 | 42.44822 | 8.85040 | 20297 ft | 455 kts | 1° |
| 2026-05-06 21:33 | 42.47992 | 8.85398 | 20723 ft | 459 kts | 1° |
| 2026-05-06 21:33 | 42.51188 | 8.85758 | 21165 ft | 462 kts | 1° |
| 2026-05-06 21:33 | 42.54402 | 8.86121 | 21581 ft | 466 kts | 1° |
| 2026-05-06 21:34 | 42.57652 | 8.86489 | 22000 ft | 470 kts | 1° |
| 2026-05-06 21:34 | 42.60883 | 8.86856 | 22364 ft | 473 kts | 1° |
| 2026-05-06 21:34 | 42.64179 | 8.87232 | 22753 ft | 477 kts | 1° |
| 2026-05-06 21:34 | 42.67499 | 8.87614 | 23142 ft | 480 kts | 1° |
| 2026-05-06 21:35 | 42.70834 | 8.88001 | 23508 ft | 483 kts | 0° |
| 2026-05-06 21:35 | 42.74207 | 8.88390 | 23821 ft | 487 kts | 0° |
| 2026-05-06 21:35 | 42.77598 | 8.88777 | 24136 ft | 489 kts | 0° |
| 2026-05-06 21:35 | 42.80999 | 8.89163 | 24436 ft | 492 kts | 0° |
| 2026-05-06 21:36 | 42.84426 | 8.89553 | 24731 ft | 495 kts | 0° |
| 2026-05-06 21:36 | 42.87858 | 8.89948 | 25019 ft | 498 kts | 0° |
| 2026-05-06 21:36 | 42.91331 | 8.90349 | 25313 ft | 500 kts | 0° |
| 2026-05-06 21:36 | 42.94813 | 8.90746 | 25597 ft | 503 kts | 360° |
| 2026-05-06 21:37 | 42.98268 | 8.91138 | 25877 ft | 505 kts | 360° |
| 2026-05-06 21:37 | 43.01787 | 8.91544 | 26157 ft | 508 kts | 0° |
| 2026-05-06 21:37 | 43.05316 | 8.91955 | 26428 ft | 510 kts | 0° |
| 2026-05-06 21:37 | 43.08864 | 8.92365 | 26729 ft | 511 kts | 360° |
| 2026-05-06 21:38 | 43.12414 | 8.92773 | 27140 ft | 511 kts | 360° |
| 2026-05-06 21:38 | 43.15954 | 8.93180 | 27547 ft | 510 kts | 359° |
| 2026-05-06 21:38 | 43.19493 | 8.93587 | 27944 ft | 510 kts | 359° |
| 2026-05-06 21:38 | 43.23035 | 8.93995 | 28357 ft | 510 kts | 359° |
| 2026-05-06 21:39 | 43.26524 | 8.94401 | 28771 ft | 510 kts | 359° |
| 2026-05-06 21:39 | 43.30063 | 8.94811 | 29191 ft | 510 kts | 359° |
| 2026-05-06 21:39 | 43.33599 | 8.95222 | 29620 ft | 509 kts | 359° |
| 2026-05-06 21:39 | 43.37144 | 8.95636 | 30047 ft | 509 kts | 359° |
| 2026-05-06 21:40 | 43.40673 | 8.95979 | 30420 ft | 507 kts | 356° |
| 2026-05-06 21:40 | 43.44193 | 8.96127 | 30813 ft | 504 kts | 354° |
| 2026-05-06 21:40 | 43.47651 | 8.96114 | 31203 ft | 502 kts | 353° |
| 2026-05-06 21:40 | 43.51129 | 8.96015 | 31611 ft | 500 kts | 352° |
| 2026-05-06 21:41 | 43.54602 | 8.95812 | 32012 ft | 494 kts | 346° |
| 2026-05-06 21:41 | 43.57831 | 8.94584 | 32388 ft | 474 kts | 328° |
| 2026-05-06 21:41 | 43.60717 | 8.92496 | 32787 ft | 464 kts | 321° |
| 2026-05-06 21:41 | 43.63514 | 8.90261 | 33176 ft | 469 kts | 326° |
| 2026-05-06 21:42 | 43.66633 | 8.88707 | 33527 ft | 479 kts | 334° |
| 2026-05-06 21:42 | 43.69821 | 8.87304 | 33929 ft | 478 kts | 334° |
| 2026-05-06 21:42 | 43.72984 | 8.85900 | 34271 ft | 476 kts | 333° |
| 2026-05-06 21:42 | 43.75932 | 8.83992 | 34585 ft | 461 kts | 319° |
| 2026-05-06 21:43 | 43.78487 | 8.81457 | 34897 ft | 456 kts | 315° |
| 2026-05-06 21:43 | 43.81058 | 8.78882 | 35203 ft | 457 kts | 317° |
| 2026-05-06 21:43 | 43.83665 | 8.76345 | 35500 ft | 457 kts | 317° |
| 2026-05-06 21:43 | 43.86287 | 8.73825 | 35783 ft | 457 kts | 318° |
| 2026-05-06 21:44 | 43.88906 | 8.71307 | 35905 ft | 458 kts | 318° |
| 2026-05-06 21:44 | 43.91520 | 8.68774 | 35916 ft | 458 kts | 317° |
| 2026-05-06 21:44 | 43.96696 | 8.63702 | 35908 ft | 458 kts | 317° |
| 2026-05-06 21:45 | 44.01891 | 8.58564 | 35907 ft | 458 kts | 317° |
| 2026-05-06 21:45 | 44.07072 | 8.53434 | 35905 ft | 458 kts | 317° |
| 2026-05-06 21:46 | 44.12264 | 8.48287 | 35907 ft | 458 kts | 317° |
| 2026-05-06 21:46 | 44.17444 | 8.43144 | 35917 ft | 457 kts | 317° |
| 2026-05-06 21:47 | 44.22630 | 8.37983 | 35911 ft | 457 kts | 317° |
| 2026-05-06 21:47 | 44.27997 | 8.33151 | 35912 ft | 467 kts | 328° |
| 2026-05-06 21:48 | 44.34321 | 8.30631 | 35908 ft | 483 kts | 348° |
| 2026-05-06 21:48 | 44.41093 | 8.30366 | 35904 ft | 487 kts | 354° |
| 2026-05-06 21:49 | 44.47875 | 8.30210 | 35906 ft | 487 kts | 354° |
| 2026-05-06 21:49 | 44.54613 | 8.30039 | 35902 ft | 488 kts | 354° |
| 2026-05-06 21:50 | 44.61401 | 8.29852 | 35902 ft | 488 kts | 354° |
| 2026-05-06 21:50 | 44.68193 | 8.29686 | 35898 ft | 488 kts | 354° |
| 2026-05-06 21:51 | 44.74978 | 8.29531 | 35905 ft | 488 kts | 354° |
| 2026-05-06 21:51 | 44.81772 | 8.29354 | 35907 ft | 488 kts | 354° |
| 2026-05-06 21:52 | 44.88547 | 8.29087 | 35907 ft | 484 kts | 349° |
| 2026-05-06 21:52 | 44.94976 | 8.26830 | 35908 ft | 470 kts | 331° |
| 2026-05-06 21:53 | 45.00461 | 8.22221 | 35899 ft | 457 kts | 316° |
| 2026-05-06 21:53 | 45.05501 | 8.16725 | 35898 ft | 458 kts | 316° |
| 2026-05-06 21:54 | 45.10552 | 8.11231 | 35905 ft | 458 kts | 316° |
| 2026-05-06 21:54 | 45.15593 | 8.05721 | 35910 ft | 458 kts | 316° |
| 2026-05-06 21:55 | 45.20638 | 8.00194 | 35921 ft | 458 kts | 316° |
| 2026-05-06 21:55 | 45.25684 | 7.94657 | 35922 ft | 459 kts | 316° |
| 2026-05-06 21:56 | 45.30727 | 7.89109 | 35929 ft | 459 kts | 316° |
| 2026-05-06 21:56 | 45.35776 | 7.83538 | 35930 ft | 459 kts | 316° |
| 2026-05-06 21:57 | 45.40821 | 7.77965 | 35922 ft | 459 kts | 316° |
| 2026-05-06 21:57 | 45.45870 | 7.72364 | 35917 ft | 459 kts | 316° |
| 2026-05-06 21:58 | 45.50916 | 7.66758 | 35915 ft | 460 kts | 316° |
| 2026-05-06 21:58 | 45.55919 | 7.61180 | 35910 ft | 459 kts | 316° |
| 2026-05-06 21:59 | 45.60965 | 7.55544 | 35920 ft | 460 kts | 316° |
| 2026-05-06 21:59 | 45.66003 | 7.49910 | 35927 ft | 460 kts | 316° |
| 2026-05-06 22:00 | 45.71055 | 7.44259 | 35950 ft | 461 kts | 317° |
| 2026-05-06 22:00 | 45.76108 | 7.38584 | 35961 ft | 460 kts | 317° |
| 2026-05-06 22:01 | 45.81166 | 7.32927 | 35973 ft | 461 kts | 318° |
| 2026-05-06 22:01 | 45.86350 | 7.27583 | 35976 ft | 462 kts | 321° |
| 2026-05-06 22:02 | 45.91649 | 7.22338 | 35983 ft | 463 kts | 321° |
| 2026-05-06 22:02 | 45.96917 | 7.17043 | 35989 ft | 462 kts | 320° |
| 2026-05-06 22:03 | 46.02153 | 7.11672 | 35990 ft | 462 kts | 320° |
| 2026-05-06 22:03 | 46.07378 | 7.06282 | 35998 ft | 462 kts | 320° |
| 2026-05-06 22:04 | 46.12604 | 7.00906 | 35996 ft | 462 kts | 320° |
| 2026-05-06 22:04 | 46.17838 | 6.95520 | 35993 ft | 461 kts | 321° |
| 2026-05-06 22:05 | 46.23069 | 6.90131 | 35980 ft | 462 kts | 321° |
| 2026-05-06 22:05 | 46.28298 | 6.84716 | 35980 ft | 462 kts | 321° |
| 2026-05-06 22:06 | 46.33478 | 6.79325 | 35970 ft | 461 kts | 321° |
| 2026-05-06 22:06 | 46.38695 | 6.73893 | 35975 ft | 461 kts | 321° |
| 2026-05-06 22:07 | 46.43659 | 6.68082 | 35963 ft | 456 kts | 309° |
| 2026-05-06 22:07 | 46.47275 | 6.60657 | 35958 ft | 449 kts | 296° |
| 2026-05-06 22:08 | 46.50383 | 6.52792 | 35952 ft | 450 kts | 297° |
| 2026-05-06 22:08 | 46.53508 | 6.44895 | 35955 ft | 450 kts | 297° |
| 2026-05-06 22:09 | 46.56615 | 6.37002 | 35957 ft | 450 kts | 297° |
| 2026-05-06 22:09 | 46.59726 | 6.29079 | 35971 ft | 451 kts | 297° |
| 2026-05-06 22:10 | 46.62805 | 6.21207 | 35970 ft | 451 kts | 297° |
| 2026-05-06 22:10 | 46.65897 | 6.13262 | 35972 ft | 451 kts | 297° |
| 2026-05-06 22:11 | 46.68982 | 6.05306 | 35972 ft | 451 kts | 297° |
| 2026-05-06 22:11 | 46.72071 | 5.97336 | 35969 ft | 452 kts | 297° |
| 2026-05-06 22:12 | 46.75155 | 5.89355 | 35974 ft | 452 kts | 297° |
| 2026-05-06 22:12 | 46.78230 | 5.81357 | 35971 ft | 452 kts | 297° |
| 2026-05-06 22:13 | 46.80837 | 5.74739 | 35974 ft | 454 kts | 302° |
| 2026-05-06 22:13 | 46.85083 | 5.67872 | 35977 ft | 458 kts | 315° |
| 2026-05-06 22:14 | 46.89747 | 5.61511 | 35979 ft | 459 kts | 314° |
| 2026-05-06 22:14 | 46.94399 | 5.55114 | 35986 ft | 459 kts | 314° |
| 2026-05-06 22:15 | 46.99045 | 5.48696 | 35985 ft | 459 kts | 314° |
| 2026-05-06 22:15 | 47.03678 | 5.42290 | 35987 ft | 459 kts | 314° |
| 2026-05-06 22:16 | 47.08331 | 5.35863 | 35986 ft | 460 kts | 314° |
| 2026-05-06 22:16 | 47.12987 | 5.29415 | 35982 ft | 459 kts | 314° |
| 2026-05-06 22:17 | 47.17627 | 5.22958 | 35977 ft | 459 kts | 314° |
| 2026-05-06 22:17 | 47.22257 | 5.16476 | 35981 ft | 459 kts | 314° |
| 2026-05-06 22:18 | 47.24568 | 5.13236 | 35836 ft | 460 kts | 314° |
| 2026-05-06 22:18 | 47.26883 | 5.09995 | 35593 ft | 459 kts | 314° |
| 2026-05-06 22:18 | 47.29164 | 5.06709 | 35350 ft | 458 kts | 313° |
| 2026-05-06 22:18 | 47.31388 | 5.03359 | 35113 ft | 457 kts | 312° |
| 2026-05-06 22:19 | 47.33574 | 4.99961 | 34874 ft | 456 kts | 311° |
| 2026-05-06 22:19 | 47.35718 | 4.96577 | 34544 ft | 456 kts | 311° |
| 2026-05-06 22:19 | 47.37895 | 4.93138 | 33454 ft | 462 kts | 312° |
| 2026-05-06 22:19 | 47.40133 | 4.89624 | 32547 ft | 463 kts | 312° |
| 2026-05-06 22:20 | 47.42357 | 4.86160 | 31430 ft | 467 kts | 313° |
| 2026-05-06 22:20 | 47.44567 | 4.82744 | 30526 ft | 466 kts | 313° |
| 2026-05-06 22:20 | 47.46813 | 4.79278 | 29470 ft | 466 kts | 313° |
| 2026-05-06 22:20 | 47.49056 | 4.75803 | 28234 ft | 468 kts | 313° |
| 2026-05-06 22:21 | 47.51309 | 4.72306 | 26925 ft | 471 kts | 313° |
| 2026-05-06 22:21 | 47.53570 | 4.68798 | 25991 ft | 470 kts | 313° |
| 2026-05-06 22:21 | 47.55820 | 4.65306 | 25722 ft | 469 kts | 313° |
| 2026-05-06 22:21 | 47.58073 | 4.61798 | 25472 ft | 470 kts | 313° |
| 2026-05-06 22:22 | 47.60324 | 4.58280 | 25218 ft | 471 kts | 313° |
| 2026-05-06 22:22 | 47.62577 | 4.54754 | 24989 ft | 472 kts | 313° |
| 2026-05-06 22:22 | 47.64836 | 4.51213 | 24770 ft | 473 kts | 313° |
| 2026-05-06 22:22 | 47.67096 | 4.47663 | 24454 ft | 473 kts | 312° |
| 2026-05-06 22:23 | 47.69171 | 4.43871 | 24198 ft | 472 kts | 301° |
| 2026-05-06 22:23 | 47.70658 | 4.39556 | 24083 ft | 471 kts | 294° |
| 2026-05-06 22:23 | 47.72054 | 4.35165 | 23951 ft | 469 kts | 294° |
| 2026-05-06 22:23 | 47.73448 | 4.30780 | 23988 ft | 470 kts | 294° |
| 2026-05-06 22:24 | 47.74847 | 4.26377 | 23988 ft | 470 kts | 294° |
| 2026-05-06 22:24 | 47.76241 | 4.21988 | 23991 ft | 470 kts | 294° |
| 2026-05-06 22:24 | 47.77634 | 4.17591 | 23988 ft | 470 kts | 294° |
| 2026-05-06 22:24 | 47.79024 | 4.13186 | 23987 ft | 471 kts | 294° |
| 2026-05-06 22:25 | 47.80414 | 4.08771 | 23829 ft | 470 kts | 294° |
| 2026-05-06 22:25 | 47.81797 | 4.04366 | 23599 ft | 469 kts | 294° |
| 2026-05-06 22:25 | 47.83172 | 3.99983 | 23319 ft | 467 kts | 294° |
| 2026-05-06 22:25 | 47.84518 | 3.95682 | 22717 ft | 461 kts | 294° |
| 2026-05-06 22:26 | 47.85867 | 3.91366 | 21576 ft | 459 kts | 294° |
| 2026-05-06 22:26 | 47.87201 | 3.87097 | 20712 ft | 451 kts | 294° |
| 2026-05-06 22:26 | 47.88518 | 3.82882 | 19788 ft | 446 kts | 294° |
| 2026-05-06 22:26 | 47.89986 | 3.78842 | 19035 ft | 441 kts | 304° |
| 2026-05-06 22:27 | 47.91872 | 3.75252 | 18782 ft | 439 kts | 307° |
| 2026-05-06 22:27 | 47.93752 | 3.71676 | 18493 ft | 437 kts | 307° |
| 2026-05-06 22:27 | 47.95605 | 3.68112 | 17560 ft | 433 kts | 307° |
| 2026-05-06 22:27 | 47.97433 | 3.64573 | 16743 ft | 427 kts | 307° |
| 2026-05-06 22:28 | 47.99241 | 3.61071 | 15944 ft | 423 kts | 307° |
| 2026-05-06 22:28 | 48.01035 | 3.57607 | 15174 ft | 420 kts | 307° |
| 2026-05-06 22:28 | 48.02819 | 3.54181 | 14426 ft | 416 kts | 307° |
| 2026-05-06 22:28 | 48.04591 | 3.50786 | 13709 ft | 412 kts | 307° |
| 2026-05-06 22:29 | 48.06342 | 3.47429 | 13196 ft | 403 kts | 307° |
| 2026-05-06 22:29 | 48.08025 | 3.44199 | 13061 ft | 385 kts | 307° |
| 2026-05-06 22:29 | 48.09628 | 3.41118 | 12929 ft | 367 kts | 307° |
| 2026-05-06 22:29 | 48.11158 | 3.38168 | 12795 ft | 350 kts | 306° |
| 2026-05-06 22:30 | 48.12618 | 3.35349 | 12670 ft | 335 kts | 306° |
| 2026-05-06 22:30 | 48.14019 | 3.32643 | 12538 ft | 322 kts | 306° |
| 2026-05-06 22:30 | 48.15365 | 3.30041 | 12409 ft | 311 kts | 306° |
| 2026-05-06 22:30 | 48.16667 | 3.27518 | 12251 ft | 301 kts | 306° |
| 2026-05-06 22:31 | 48.17934 | 3.25058 | 11976 ft | 296 kts | 306° |
| 2026-05-06 22:31 | 48.19187 | 3.22626 | 11733 ft | 293 kts | 306° |
| 2026-05-06 22:31 | 48.20458 | 3.20244 | 11475 ft | 292 kts | 311° |
| 2026-05-06 22:31 | 48.21873 | 3.18067 | 11230 ft | 291 kts | 313° |
| 2026-05-06 22:32 | 48.23284 | 3.15900 | 10981 ft | 290 kts | 313° |
| 2026-05-06 22:32 | 48.24689 | 3.13734 | 10735 ft | 289 kts | 313° |
| 2026-05-06 22:32 | 48.26134 | 3.11652 | 10485 ft | 289 kts | 322° |
| 2026-05-06 22:32 | 48.27851 | 3.10090 | 10246 ft | 288 kts | 328° |
| 2026-05-06 22:33 | 48.29588 | 3.08593 | 10053 ft | 287 kts | 328° |
| 2026-05-06 22:33 | 48.31318 | 3.07102 | 9982 ft | 286 kts | 328° |
| 2026-05-06 22:33 | 48.33046 | 3.05606 | 9995 ft | 287 kts | 328° |
| 2026-05-06 22:33 | 48.34776 | 3.04111 | 9989 ft | 287 kts | 328° |
| 2026-05-06 22:34 | 48.36506 | 3.02615 | 9992 ft | 286 kts | 328° |
| 2026-05-06 22:34 | 48.38230 | 3.01120 | 9994 ft | 287 kts | 328° |
| 2026-05-06 22:34 | 48.39958 | 2.99621 | 9917 ft | 287 kts | 328° |
| 2026-05-06 22:34 | 48.41684 | 2.98127 | 9786 ft | 286 kts | 328° |
| 2026-05-06 22:35 | 48.43404 | 2.96635 | 9653 ft | 285 kts | 328° |
| 2026-05-06 22:35 | 48.45120 | 2.95142 | 9521 ft | 284 kts | 328° |
| 2026-05-06 22:35 | 48.46831 | 2.93653 | 9383 ft | 283 kts | 328° |
| 2026-05-06 22:35 | 48.48515 | 2.92187 | 9255 ft | 283 kts | 328° |
| 2026-05-06 22:36 | 48.50236 | 2.90687 | 9127 ft | 282 kts | 328° |
| 2026-05-06 22:36 | 48.51932 | 2.89212 | 8994 ft | 281 kts | 329° |
| 2026-05-06 22:36 | 48.53607 | 2.87755 | 8531 ft | 284 kts | 328° |
| 2026-05-06 22:36 | 48.55311 | 2.86268 | 8088 ft | 282 kts | 329° |
| 2026-05-06 22:37 | 48.57020 | 2.84778 | 7645 ft | 282 kts | 329° |
| 2026-05-06 22:37 | 48.58708 | 2.83306 | 7279 ft | 279 kts | 329° |
| 2026-05-06 22:37 | 48.60401 | 2.81912 | 6933 ft | 275 kts | 336° |
| 2026-05-06 22:37 | 48.62225 | 2.81153 | 6588 ft | 272 kts | 350° |
| 2026-05-06 22:38 | 48.64099 | 2.80765 | 6188 ft | 269 kts | 352° |
| 2026-05-06 22:38 | 48.65946 | 2.80411 | 5775 ft | 267 kts | 352° |
| 2026-05-06 22:38 | 48.67774 | 2.80056 | 5476 ft | 260 kts | 352° |
| 2026-05-06 22:38 | 48.69528 | 2.79711 | 5332 ft | 247 kts | 352° |
| 2026-05-06 22:39 | 48.71192 | 2.79378 | 5207 ft | 236 kts | 352° |
| 2026-05-06 22:39 | 48.72780 | 2.79057 | 5080 ft | 225 kts | 352° |
| 2026-05-06 22:39 | 48.74288 | 2.78641 | 4864 ft | 218 kts | 339° |
| 2026-05-06 22:39 | 48.75465 | 2.77258 | 4565 ft | 217 kts | 305° |
| 2026-05-06 22:40 | 48.76166 | 2.75224 | 4221 ft | 218 kts | 297° |
| 2026-05-06 22:40 | 48.76714 | 2.73451 | 4088 ft | 210 kts | 297° |
| 2026-05-06 22:40 | 48.77306 | 2.71478 | 3954 ft | 201 kts | 295° |
| 2026-05-06 22:40 | 48.77743 | 2.69517 | 3808 ft | 194 kts | 282° |
| 2026-05-06 22:41 | 48.77360 | 2.65498 | 3301 ft | 195 kts | 257° |
| 2026-05-06 22:41 | 48.77000 | 2.63519 | 3088 ft | 195 kts | 258° |
| 2026-05-06 22:41 | 48.76639 | 2.61533 | 3001 ft | 195 kts | 258° |
| 2026-05-06 22:42 | 48.76277 | 2.59543 | 3003 ft | 197 kts | 258° |
| 2026-05-06 22:42 | 48.75916 | 2.57563 | 2893 ft | 192 kts | 258° |
| 2026-05-06 22:42 | 48.75560 | 2.55608 | 2614 ft | 191 kts | 259° |
| 2026-05-06 22:42 | 48.75207 | 2.53669 | 2355 ft | 191 kts | 259° |
| 2026-05-06 22:43 | 48.74855 | 2.51744 | 2091 ft | 186 kts | 259° |
| 2026-05-06 22:43 | 48.74517 | 2.49901 | 1833 ft | 178 kts | 259° |
| 2026-05-06 22:43 | 48.74191 | 2.48118 | 1551 ft | 173 kts | 257° |
| 2026-05-06 22:43 | 48.73876 | 2.46399 | 1283 ft | 164 kts | 257° |
| 2026-05-06 22:44 | 48.73587 | 2.44827 | 1034 ft | 146 kts | 257° |
| 2026-05-06 22:44 | 48.73328 | 2.43415 | 839 ft | 133 kts | 256° |
| 2026-05-06 22:44 | 48.73088 | 2.42098 | 668 ft | 128 kts | 256° |
| 2026-05-06 22:44 | 48.72854 | 2.40813 | 476 ft | 126 kts | 256° |
| 2026-05-06 22:45 | 48.72619 | 2.39542 | 324 ft | 125 kts | 256° |
| 2026-05-06 22:45 | 48.72413 | 2.38385 | 294 ft | 95 kts | 256° |
| 2026-05-06 22:45 | 48.72278 | 2.37679 | 289 ft | 49 kts | 253° |
| 2026-05-06 22:45 | 48.72267 | 2.37622 | 288 ft | 48 kts | 253° |